createdAt,value
2023-03-07T00:00:15.506Z,8.35
2023-03-07T00:02:46.081Z,7.78
2023-03-07T00:05:16.687Z,6.32
2023-03-07T00:07:48.874Z,6.95
2023-03-07T00:10:19.834Z,7.43
2023-03-07T00:12:50.391Z,7.20
2023-03-07T00:15:21.281Z,6.95
2023-03-07T00:17:51.782Z,7.70
2023-03-07T00:20:22.438Z,6.78
2023-03-07T00:22:54.557Z,6.00
2023-03-07T00:25:25.152Z,6.20
2023-03-07T00:27:55.722Z,6.45
2023-03-07T00:30:26.308Z,5.60
2023-03-07T00:32:57.963Z,7.18
2023-03-07T00:35:28.589Z,6.78
2023-03-07T00:38:00.740Z,7.20
2023-03-07T00:40:31.426Z,6.53
2023-03-07T00:43:01.925Z,6.72
2023-03-07T00:45:32.456Z,6.82
2023-03-07T00:48:02.964Z,6.32
2023-03-07T00:50:33.504Z,6.30
2023-03-07T00:53:05.568Z,6.75
2023-03-07T00:55:36.385Z,7.43
2023-03-07T00:58:06.886Z,7.85
2023-03-07T01:00:37.423Z,6.43
2023-03-07T01:03:08.487Z,7.13
2023-03-07T01:05:42.484Z,7.22
2023-03-07T01:08:14.910Z,5.90
2023-03-07T01:10:45.803Z,6.85
2023-03-07T01:13:16.389Z,6.85
2023-03-07T01:15:47.305Z,6.57
2023-03-07T01:18:17.890Z,6.28
2023-03-07T01:20:48.455Z,6.40
2023-03-07T01:23:20.681Z,6.63
2023-03-07T01:25:51.190Z,6.15
2023-03-07T01:28:21.722Z,6.22
2023-03-07T01:31:00.656Z,5.65
2023-03-07T01:33:31.206Z,6.32
2023-03-07T01:36:02.058Z,6.75
2023-03-07T01:38:35.094Z,5.97
2023-03-07T01:41:06.241Z,6.35
2023-03-07T01:43:37.987Z,6.18
2023-03-07T01:46:36.161Z,7.07
2023-03-07T01:49:12.052Z,5.63
2023-03-07T01:51:45.805Z,6.90
2023-03-07T01:54:20.519Z,7.18
2023-03-07T01:56:51.441Z,6.20
2023-03-07T01:59:27.656Z,7.22
2023-03-07T02:02:00.248Z,6.75
2023-03-07T02:04:36.957Z,5.63
2023-03-07T02:07:10.493Z,6.07
2023-03-07T02:09:44.189Z,5.93
2023-03-07T02:12:16.309Z,6.38
2023-03-07T02:14:48.771Z,6.38
2023-03-07T02:17:20.488Z,5.78
2023-03-07T02:20:06.794Z,6.28
2023-03-07T02:22:37.428Z,7.05
2023-03-07T02:25:17.820Z,6.65
2023-03-07T02:27:53.937Z,5.95
2023-03-07T02:30:25.437Z,5.15
2023-03-07T02:32:56.114Z,6.03
2023-03-07T02:35:28.308Z,6.35
2023-03-07T02:38:00.714Z,6.45
2023-03-07T02:40:33.600Z,7.30
2023-03-07T02:43:10.474Z,7.82
2023-03-07T02:45:41.052Z,5.60
2023-03-07T02:48:11.582Z,6.85
2023-03-07T02:50:42.189Z,6.47
2023-03-07T02:53:12.721Z,6.05
2023-03-07T02:55:43.153Z,7.00
2023-03-07T02:58:15.171Z,7.13
2023-03-07T03:00:45.720Z,7.30
2023-03-07T03:03:16.240Z,6.45
2023-03-07T03:05:46.729Z,6.68
2023-03-07T03:08:17.457Z,6.22
2023-03-07T03:10:47.989Z,6.47
2023-03-07T03:13:21.007Z,6.47
2023-03-07T03:15:52.439Z,6.45
2023-03-07T03:18:22.909Z,6.15
2023-03-07T03:20:53.420Z,6.10
2023-03-07T03:23:23.930Z,6.07
2023-03-07T03:26:01.588Z,5.93
2023-03-07T03:28:33.644Z,5.57
2023-03-07T03:31:06.620Z,6.60
2023-03-07T03:33:37.261Z,6.50
2023-03-07T03:36:11.253Z,6.40
2023-03-07T03:38:41.761Z,6.10
2023-03-07T03:41:16.583Z,6.03
2023-03-07T03:43:48.634Z,6.60
2023-03-07T03:46:20.532Z,7.05
2023-03-07T03:48:55.747Z,6.00
2023-03-07T03:51:27.044Z,5.00
2023-03-07T03:53:58.571Z,6.35
2023-03-07T03:56:30.493Z,6.50
2023-03-07T03:59:02.572Z,6.20
2023-03-07T04:01:33.142Z,6.55
2023-03-07T04:04:03.615Z,5.93
2023-03-07T04:06:36.881Z,5.60
2023-03-07T04:09:07.584Z,6.97
2023-03-07T04:11:38.939Z,6.35
2023-03-07T04:14:10.993Z,6.75
2023-03-07T04:16:41.637Z,5.90
2023-03-07T04:19:14.254Z,6.00
2023-03-07T04:21:44.740Z,6.75
2023-03-07T04:24:15.231Z,6.43
2023-03-07T04:26:45.718Z,6.30
2023-03-07T04:29:17.744Z,6.43
2023-03-07T04:31:48.172Z,6.22
2023-03-07T04:34:18.645Z,6.47
2023-03-07T04:36:49.213Z,7.68
2023-03-07T04:39:19.648Z,7.50
2023-03-07T04:41:50.623Z,8.38
2023-03-07T04:44:22.760Z,9.10
2023-03-07T04:46:53.262Z,9.85
2023-03-07T04:49:25.588Z,12.85
2023-03-07T04:51:56.096Z,7.72
2023-03-07T04:54:26.715Z,7.72
2023-03-07T04:56:57.236Z,7.15
2023-03-07T04:59:29.562Z,6.15
2023-03-07T05:02:00.089Z,7.60
2023-03-07T05:04:30.645Z,8.32
2023-03-07T05:07:01.329Z,7.43
2023-03-07T05:09:32.030Z,9.07
2023-03-07T05:12:02.710Z,11.63
2023-03-07T05:14:35.011Z,8.38
2023-03-07T05:17:05.625Z,8.50
2023-03-07T05:19:36.213Z,8.00
2023-03-07T05:22:06.840Z,12.68
2023-03-07T05:24:37.419Z,13.35
2023-03-07T05:27:08.347Z,10.60
2023-03-07T05:29:40.464Z,22.50
2023-03-07T05:32:11.793Z,16.65
2023-03-07T05:34:42.473Z,18.23
2023-03-07T05:37:13.038Z,7.88
2023-03-07T05:39:43.543Z,8.15
2023-03-07T05:42:14.272Z,9.18
2023-03-07T05:44:46.466Z,11.75
2023-03-07T05:47:16.995Z,9.80
2023-03-07T05:49:47.508Z,12.63
2023-03-07T05:52:17.952Z,12.40
2023-03-07T05:54:50.019Z,11.23
2023-03-07T05:57:22.916Z,10.63
2023-03-07T05:59:54.933Z,9.73
2023-03-07T06:02:25.374Z,12.07
2023-03-07T06:04:55.882Z,10.63
2023-03-07T06:07:26.328Z,9.63
2023-03-07T06:09:56.782Z,9.95
2023-03-07T06:12:27.281Z,10.77
2023-03-07T06:15:02.154Z,13.52
2023-03-07T06:17:32.920Z,14.30
2023-03-07T06:20:04.291Z,14.40
2023-03-07T06:22:35.549Z,11.02
2023-03-07T06:25:06.178Z,13.00
2023-03-07T06:27:36.795Z,13.27
2023-03-07T06:30:10.996Z,13.98
2023-03-07T06:32:41.568Z,12.93
2023-03-07T06:35:13.186Z,12.65
2023-03-07T06:37:43.753Z,11.50
2023-03-07T06:40:14.999Z,11.10
2023-03-07T06:42:45.510Z,11.73
2023-03-07T06:45:17.823Z,11.95
2023-03-07T06:47:48.338Z,12.30
2023-03-07T06:50:23.769Z,11.35
2023-03-07T06:53:00.436Z,12.05
2023-03-07T06:55:30.872Z,11.27
2023-03-07T06:58:01.391Z,11.88
2023-03-07T07:00:33.818Z,11.80
2023-03-07T07:03:04.461Z,12.43
2023-03-07T07:05:34.903Z,11.90
2023-03-07T07:08:05.378Z,11.05
2023-03-07T07:10:35.884Z,10.70
2023-03-07T07:13:06.849Z,11.10
2023-03-07T07:15:38.936Z,11.10
2023-03-07T07:18:11.394Z,11.88
2023-03-07T07:20:42.019Z,11.10
2023-03-07T07:23:12.577Z,12.32
2023-03-07T07:25:43.157Z,12.48
2023-03-07T07:28:13.645Z,10.98
2023-03-07T07:30:45.817Z,10.90
2023-03-07T07:33:16.856Z,11.00
2023-03-07T07:35:48.030Z,13.35
2023-03-07T07:38:18.614Z,11.43
2023-03-07T07:40:49.080Z,10.75
2023-03-07T07:43:20.511Z,11.10
2023-03-07T07:45:52.581Z,11.13
2023-03-07T07:48:23.224Z,10.70
2023-03-07T07:50:53.635Z,11.43
2023-03-07T07:53:24.031Z,9.57
2023-03-07T07:55:54.415Z,10.70
2023-03-07T08:06:02.706Z,10.30
2023-03-07T08:08:34.282Z,10.65
2023-03-07T08:11:06.206Z,11.32
2023-03-07T08:13:37.774Z,10.18
2023-03-07T08:16:16.133Z,11.30
2023-03-07T08:18:52.661Z,9.52
2023-03-07T08:21:26.466Z,10.93
2023-03-07T08:23:58.493Z,10.07
2023-03-07T08:26:30.116Z,10.40
2023-03-07T08:29:02.573Z,10.35
2023-03-07T08:31:34.342Z,10.68
2023-03-07T08:34:07.947Z,10.25
2023-03-07T08:36:40.733Z,11.52
2023-03-07T08:39:11.654Z,12.07
2023-03-07T08:41:42.169Z,12.85
2023-03-07T08:44:15.357Z,11.38
2023-03-07T08:46:48.727Z,10.73
2023-03-07T08:49:19.312Z,10.35
2023-03-07T08:51:52.104Z,10.88
2023-03-07T08:54:22.687Z,12.73
2023-03-07T08:56:56.032Z,15.48
2023-03-07T08:59:29.486Z,14.57
2023-03-07T09:02:03.277Z,15.00
2023-03-07T09:04:33.897Z,10.73
2023-03-07T09:07:06.399Z,9.50
2023-03-07T09:09:38.904Z,10.60
2023-03-07T09:12:14.869Z,12.68
2023-03-07T09:14:46.564Z,21.98
2023-03-07T09:17:17.289Z,22.23
2023-03-07T09:19:47.913Z,21.60
2023-03-07T09:22:23.474Z,21.23
2023-03-07T09:24:54.155Z,17.83
2023-03-07T09:27:24.851Z,10.75
2023-03-07T09:29:56.516Z,10.77
2023-03-07T09:32:27.332Z,10.00
2023-03-07T09:34:58.241Z,9.93
2023-03-07T09:37:30.571Z,9.05
2023-03-07T09:40:02.220Z,9.10
2023-03-07T09:42:44.795Z,8.95
2023-03-07T09:45:34.499Z,9.23
2023-03-07T09:48:37.748Z,10.13
2023-03-07T09:51:17.343Z,14.57
2023-03-07T09:57:34.453Z,13.88
2023-03-07T10:00:12.632Z,11.48
2023-03-07T10:02:50.215Z,9.98
2023-03-07T10:05:32.923Z,9.70
2023-03-07T10:08:05.998Z,8.85
2023-03-07T10:10:41.304Z,8.43
2023-03-07T10:13:28.452Z,7.95
2023-03-07T10:16:03.968Z,7.95
2023-03-07T10:19:00.596Z,8.30
2023-03-07T10:21:45.120Z,8.35
2023-03-07T10:24:37.165Z,7.80
2023-03-07T10:27:15.888Z,7.55
2023-03-07T10:29:50.144Z,10.90
2023-03-07T10:32:35.321Z,12.13
2023-03-07T10:35:20.077Z,12.65
2023-03-07T10:37:56.987Z,9.10
2023-03-07T10:40:31.107Z,9.98
2023-03-07T10:43:03.071Z,7.78
2023-03-07T10:45:38.759Z,9.23
2023-03-07T10:48:17.427Z,9.38
2023-03-07T10:50:56.572Z,9.90
2023-03-07T10:53:29.533Z,11.38
2023-03-07T10:56:16.955Z,6.60
2023-03-07T10:59:03.121Z,6.25
2023-03-07T11:01:39.421Z,7.10
2023-03-07T11:04:24.737Z,6.90
2023-03-07T11:06:56.953Z,6.78
2023-03-07T11:09:33.320Z,6.50
2023-03-07T11:12:15.210Z,6.45
2023-03-07T11:14:51.573Z,6.75
2023-03-07T11:17:25.600Z,5.60
2023-03-07T11:19:57.857Z,6.25
2023-03-07T11:22:31.079Z,7.15
2023-03-07T11:25:04.729Z,7.20
2023-03-07T11:27:41.802Z,6.80
2023-03-07T11:30:30.998Z,11.45
2023-03-07T11:33:21.372Z,15.98
2023-03-07T11:36:06.442Z,10.32
2023-03-07T11:38:55.294Z,11.30
2023-03-07T11:41:30.054Z,10.30
2023-03-07T11:44:32.357Z,11.63
2023-03-07T11:47:21.079Z,14.88
2023-03-07T11:50:24.099Z,10.13
2023-03-07T11:53:17.956Z,9.73
2023-03-07T11:56:00.864Z,11.15
2023-03-07T11:58:52.664Z,12.25
2023-03-07T12:01:33.326Z,22.67
2023-03-07T12:04:47.641Z,32.60
2023-03-07T12:07:55.727Z,22.42
2023-03-07T12:10:46.898Z,15.90
2023-03-07T12:13:31.917Z,12.70
2023-03-07T12:16:14.412Z,13.63
2023-03-07T12:19:12.515Z,12.30
2023-03-07T12:22:11.591Z,10.52
2023-03-07T12:24:49.867Z,11.13
2023-03-07T12:27:26.884Z,13.63
2023-03-07T12:30:04.710Z,13.15
2023-03-07T12:32:39.021Z,19.10
2023-03-07T12:35:18.934Z,38.22
2023-03-07T12:37:56.336Z,42.10
2023-03-07T12:40:37.466Z,15.20
2023-03-07T12:43:19.664Z,12.50
2023-03-07T12:45:55.294Z,28.23
2023-03-07T12:48:32.169Z,28.98
2023-03-07T12:51:07.572Z,19.58
2023-03-07T12:53:45.241Z,19.45
2023-03-07T12:56:28.667Z,16.40
2023-03-07T12:59:03.485Z,15.15
2023-03-07T13:01:38.339Z,16.08
2023-03-07T13:04:17.549Z,17.73
2023-03-07T13:06:51.047Z,16.77
2023-03-07T13:09:25.349Z,20.10
2023-03-07T13:12:30.481Z,19.20
2023-03-07T13:15:02.273Z,17.35
2023-03-07T13:18:02.568Z,12.50
2023-03-07T13:20:43.802Z,10.43
2023-03-07T13:23:29.605Z,12.77
2023-03-07T13:26:18.156Z,14.25
2023-03-07T13:28:56.352Z,16.80
2023-03-07T13:31:45.672Z,15.00
2023-03-07T13:34:52.339Z,17.13
2023-03-07T13:37:58.524Z,19.83
2023-03-07T13:40:58.726Z,20.15
2023-03-07T13:44:07.272Z,16.23
2023-03-07T13:47:24.089Z,38.03
2023-03-07T13:50:08.853Z,43.25
2023-03-07T13:53:03.998Z,27.48
2023-03-07T13:55:58.388Z,24.52
2023-03-07T13:58:54.628Z,24.27
2023-03-07T14:01:33.776Z,21.42
2023-03-07T14:04:15.640Z,19.60
2023-03-07T14:06:49.010Z,18.98
2023-03-07T14:09:26.803Z,14.82
2023-03-07T14:12:10.656Z,18.50
2023-03-07T14:14:58.024Z,31.80
2023-03-07T14:17:58.372Z,15.80
2023-03-07T14:20:42.727Z,13.35
2023-03-07T14:23:28.075Z,11.98
2023-03-07T14:26:11.564Z,11.93
2023-03-07T14:28:52.014Z,11.75
2023-03-07T14:31:30.185Z,9.80
2023-03-07T14:34:06.802Z,8.82
2023-03-07T14:36:37.553Z,9.80
2023-03-07T14:39:16.423Z,9.55
2023-03-07T14:42:00.012Z,9.90
2023-03-07T14:45:02.207Z,9.48
2023-03-07T14:47:50.916Z,7.95
2023-03-07T14:50:25.185Z,8.95
2023-03-07T14:53:00.173Z,9.57
2023-03-07T14:55:36.638Z,9.10
2023-03-07T14:58:08.192Z,13.00
2023-03-07T15:00:39.219Z,13.45
2023-03-07T15:03:13.232Z,11.52
2023-03-07T15:05:55.873Z,10.73
2023-03-07T15:08:28.485Z,8.25
2023-03-07T15:11:05.251Z,8.88
2023-03-07T15:13:40.392Z,9.23
2023-03-07T15:16:15.888Z,9.80
2023-03-07T15:18:50.727Z,9.48
2023-03-07T15:21:25.137Z,10.98
2023-03-07T15:23:57.452Z,10.50
2023-03-07T15:26:29.345Z,9.73
2023-03-07T15:29:05.292Z,10.90
2023-03-07T15:31:52.721Z,10.05
2023-03-07T15:34:27.525Z,11.73
2023-03-07T15:37:23.897Z,12.35
2023-03-07T15:40:01.625Z,15.23
2023-03-07T15:42:35.758Z,13.07
2023-03-07T15:45:07.267Z,13.80
2023-03-07T15:47:39.713Z,12.20
2023-03-07T15:50:26.183Z,12.43
2023-03-07T15:53:06.189Z,13.32
2023-03-07T15:55:41.098Z,13.57
2023-03-07T15:58:17.397Z,13.40
2023-03-07T16:00:54.561Z,13.75
2023-03-07T16:03:36.397Z,15.20
2023-03-07T16:06:08.203Z,13.48
2023-03-07T16:08:40.387Z,13.45
2023-03-07T16:11:13.737Z,13.73
2023-03-07T16:13:46.621Z,14.05
2023-03-07T16:16:25.845Z,12.40
2023-03-07T16:18:58.616Z,12.52
2023-03-07T16:21:29.980Z,11.60
2023-03-07T16:24:14.927Z,11.95
2023-03-07T16:26:47.875Z,11.48
2023-03-07T16:29:21.580Z,11.73
2023-03-07T16:31:52.422Z,10.70
2023-03-07T16:34:33.202Z,11.23
2023-03-07T16:37:08.497Z,12.13
2023-03-07T16:39:43.552Z,12.05
2023-03-07T16:42:25.587Z,12.30
2023-03-07T16:44:56.482Z,13.23
2023-03-07T16:47:27.073Z,13.52
2023-03-07T16:49:57.780Z,14.90
2023-03-07T16:52:28.595Z,14.18
2023-03-07T16:55:01.190Z,13.25
2023-03-07T16:57:31.880Z,11.40
2023-03-07T17:00:08.555Z,13.18
2023-03-07T17:02:39.376Z,12.35
2023-03-07T17:05:17.125Z,11.60
2023-03-07T17:07:48.352Z,12.52
2023-03-07T17:10:23.361Z,12.45
2023-03-07T17:12:54.492Z,11.68
2023-03-07T17:15:31.388Z,12.18
2023-03-07T17:18:03.070Z,13.77
2023-03-07T17:20:38.539Z,14.52
2023-03-07T17:23:09.724Z,15.20
2023-03-07T17:25:42.400Z,14.98
2023-03-07T17:28:20.345Z,14.23
2023-03-07T17:30:56.355Z,14.80
2023-03-07T17:33:27.183Z,13.63
2023-03-07T17:35:59.016Z,13.85
2023-03-07T17:38:30.052Z,11.38
2023-03-07T17:41:07.365Z,12.70
2023-03-07T17:43:42.660Z,12.27
2023-03-07T17:46:16.416Z,11.77
2023-03-07T17:48:52.291Z,13.10
2023-03-07T17:51:25.453Z,12.55
2023-03-07T17:54:00.286Z,12.20
2023-03-07T17:56:34.405Z,12.85
2023-03-07T17:59:06.859Z,14.27
2023-03-07T18:01:43.329Z,13.73
2023-03-07T18:04:15.895Z,13.23
2023-03-07T18:06:51.237Z,12.90
2023-03-07T18:09:24.548Z,13.10
2023-03-07T18:11:58.872Z,13.55
2023-03-07T18:14:34.116Z,11.48
2023-03-07T18:17:08.612Z,12.68
2023-03-07T18:19:46.107Z,12.82
2023-03-07T18:22:17.847Z,10.27
2023-03-07T18:24:58.410Z,14.43
2023-03-07T18:27:35.527Z,11.52
2023-03-07T18:30:08.676Z,10.85
2023-03-07T18:32:42.027Z,10.57
2023-03-07T18:35:15.484Z,10.68
2023-03-07T18:37:49.010Z,11.35
2023-03-07T18:40:26.234Z,11.43
2023-03-07T18:43:05.267Z,9.68
2023-03-07T18:45:39.545Z,12.27
2023-03-07T18:48:14.312Z,10.90
2023-03-07T18:50:47.487Z,12.05
2023-03-07T18:53:23.572Z,12.13
2023-03-07T18:55:59.835Z,12.05
2023-03-07T18:58:40.379Z,10.77
2023-03-07T19:01:15.541Z,11.30
2023-03-07T19:03:48.563Z,11.23
2023-03-07T19:06:21.108Z,11.25
2023-03-07T19:08:51.941Z,10.77
2023-03-07T19:11:22.996Z,10.55
2023-03-07T19:14:00.613Z,11.95
2023-03-07T19:16:31.546Z,9.90
2023-03-07T19:19:04.653Z,10.82
2023-03-07T19:21:35.640Z,9.00
2023-03-07T19:24:09.029Z,10.32
2023-03-07T19:26:40.181Z,9.77
2023-03-07T19:29:15.680Z,9.50
2023-03-07T19:31:46.332Z,10.32
2023-03-07T19:34:16.991Z,9.73
2023-03-07T19:36:50.023Z,9.80
2023-03-07T19:39:22.619Z,9.75
2023-03-07T19:41:53.102Z,9.80
2023-03-07T19:44:28.198Z,9.60
2023-03-07T19:46:58.853Z,8.43
2023-03-07T19:49:32.201Z,10.38
2023-03-07T19:52:03.577Z,11.00
2023-03-07T19:54:34.663Z,8.50
2023-03-07T19:57:05.630Z,10.10
2023-03-07T19:59:37.793Z,7.95
2023-03-07T20:02:08.209Z,9.27
2023-03-07T20:04:38.603Z,9.88
2023-03-07T20:07:09.149Z,10.85
2023-03-07T20:09:39.881Z,9.88
2023-03-07T20:12:11.142Z,9.65
2023-03-07T20:14:45.359Z,9.90
2023-03-07T20:17:16.260Z,11.30
2023-03-07T20:19:46.867Z,11.32
2023-03-07T20:22:18.420Z,10.07
2023-03-07T20:24:51.674Z,10.02
2023-03-07T20:27:24.232Z,11.07
2023-03-07T20:29:56.387Z,9.85
2023-03-07T20:32:26.932Z,10.45
2023-03-07T20:34:58.478Z,9.48
2023-03-07T20:37:29.009Z,9.50
2023-03-07T20:39:59.500Z,10.25
2023-03-07T20:42:30.111Z,10.32
2023-03-07T20:45:02.179Z,10.68
2023-03-07T20:47:33.373Z,9.65
2023-03-07T20:50:03.755Z,9.30
2023-03-07T20:52:34.231Z,9.82
2023-03-07T20:55:05.841Z,9.68
2023-03-07T20:57:36.320Z,10.07
2023-03-07T21:00:09.609Z,10.18
2023-03-07T21:02:40.521Z,10.85
2023-03-07T21:05:11.620Z,10.13
2023-03-07T21:07:42.067Z,10.55
2023-03-07T21:10:14.193Z,10.15
2023-03-07T21:12:44.679Z,11.07
2023-03-07T21:15:16.895Z,11.40
2023-03-07T21:17:47.385Z,10.13
2023-03-07T21:20:18.176Z,10.13
2023-03-07T21:22:49.253Z,8.38
2023-03-07T21:25:19.891Z,10.07
2023-03-07T21:27:50.450Z,8.70
2023-03-07T21:30:22.649Z,10.82
2023-03-07T21:32:53.122Z,12.10
2023-03-07T21:35:23.575Z,12.63
2023-03-07T21:37:54.036Z,10.85
2023-03-07T21:40:24.560Z,10.38
2023-03-07T21:42:55.081Z,10.82
2023-03-07T21:45:27.269Z,9.63
2023-03-07T21:47:57.809Z,9.23
2023-03-07T21:50:28.480Z,9.30
2023-03-07T21:53:01.968Z,10.27
2023-03-07T21:55:32.478Z,10.35
2023-03-07T21:58:03.033Z,10.30
2023-03-07T22:00:36.099Z,9.02
2023-03-07T22:03:09.754Z,8.95
2023-03-07T22:05:41.402Z,9.50
2023-03-07T22:08:12.395Z,9.38
2023-03-07T22:10:42.850Z,9.60
2023-03-07T22:13:13.442Z,8.93
2023-03-07T22:15:45.584Z,8.18
2023-03-07T22:18:19.196Z,8.05
2023-03-07T22:20:49.677Z,9.18
2023-03-07T22:23:20.774Z,8.82
2023-03-07T22:25:51.355Z,8.82
2023-03-07T22:28:21.899Z,8.25
2023-03-07T22:30:53.891Z,7.25
2023-03-07T22:33:24.339Z,8.18
2023-03-07T22:35:59.724Z,9.05
2023-03-07T22:38:30.410Z,9.55
2023-03-07T22:41:04.427Z,9.73
2023-03-07T22:43:35.482Z,7.80
2023-03-07T22:46:08.393Z,7.57
2023-03-07T22:48:38.985Z,7.15
2023-03-07T22:51:15.389Z,7.53
2023-03-07T22:53:45.948Z,7.70
2023-03-07T22:56:21.593Z,6.97
2023-03-07T22:58:52.292Z,7.47
2023-03-07T23:01:26.235Z,6.63
2023-03-07T23:03:57.791Z,6.55
2023-03-07T23:06:30.610Z,6.93
2023-03-07T23:09:02.847Z,6.85
2023-03-07T23:11:35.566Z,7.55
2023-03-07T23:14:07.186Z,7.50
2023-03-07T23:16:40.202Z,5.85
2023-03-07T23:19:10.894Z,7.00
2023-03-07T23:21:41.456Z,6.85
2023-03-07T23:24:13.407Z,6.78
2023-03-07T23:26:44.355Z,7.38
2023-03-07T23:29:14.838Z,8.13
2023-03-07T23:31:47.372Z,6.25
2023-03-07T23:34:19.697Z,6.45
2023-03-07T23:36:50.643Z,6.70
2023-03-07T23:39:21.347Z,5.50
2023-03-07T23:41:51.992Z,6.10
2023-03-07T23:44:22.583Z,6.07
2023-03-07T23:46:54.791Z,5.60
2023-03-07T23:49:25.352Z,5.70
2023-03-07T23:51:55.868Z,5.35
2023-03-07T23:54:26.698Z,6.60
2023-03-07T23:56:57.318Z,5.70
2023-03-07T23:59:27.906Z,5.55
